aviador You're here:

LFMP Decoded Metar

Perpignan in FRANCE
Report Time2017-08-24 06:30:00
UTC Time2017-08-24 06:57:54
Flight Rules ifr IFR
Wind070° at 05 kt
W.Decomp.*RWY 13: 2.5 kt HW 4.3 kt LCW
RWY 15: 0.9 kt HW 4.9 kt LCW
W.Rank070° ranks 19
Current wind is below 070° avg. (6.1)
Visibility9999 m
Phenomena:N/A
Clouds:Broken 005 Hf
Overcast 009 Hf
Expected CloudBase > 800 ft AGL from Temp-Dew spread
Ceiling500 ft
Temp23°C (ISA +8)
Dew Point21°C (89% RH)
QNH1016 hPa
Density Alt1,352 ft
Elevation157 ft
Report Wrong Elevation
Raw Report
LFMP 240630Z AUTO 07005KT 030V090 9999 BKN005 OVC009 23/21 Q1016
TEMPO OVC010=

Extra information for LFMP:More info

Metar Taf Metar & Taf Last 4 Metars F.Rules Stats Wind Profile Meteogram Temp Stats Airport Information Weather charts Add Link Nearby VenuesMetar ALERT Operation Metar Decoded Social comments